Time;durP1;ratioP1;P1;durP2;ratioP2;P2;SDS_P1;SDS_P2;PMS_P1;PMS_P2;Temp;Humidity;BMP_temperature;BMP_pressure;BME280_temperature;BME280_humidity;BME280_pressure;Samples;Min_cycle;Max_cycle;Signal;HPM_P1;HPM_P2
2022/12/18 00:00:51;;;;;;;61.15;24.35;;;;;;;;;;4983021;28;20220;-82
2022/12/18 00:03:55;;;;;;;57.72;24.50;;;;;;;;;;4993159;28;20188;-82
2022/12/18 00:07:01;;;;;;;62.58;25.38;;;;;;;;;;4982328;28;20213;-82
2022/12/18 00:10:07;;;;;;;71.18;26.20;;;;;;;;;;4993402;28;20197;-82
2022/12/18 00:13:12;;;;;;;73.72;27.25;;;;;;;;;;4992973;28;20648;-82
2022/12/18 00:16:20;;;;;;;71.90;26.70;;;;;;;;;;4981842;28;20541;-83
2022/12/18 00:19:24;;;;;;;72.30;26.90;;;;;;;;;;4992764;28;20196;-82
2022/12/18 00:22:29;;;;;;;62.45;25.77;;;;;;;;;;4982024;28;20220;-83
2022/12/18 00:25:34;;;;;;;63.28;25.40;;;;;;;;;;4993030;28;20624;-83
2022/12/18 00:28:38;;;;;;;65.05;25.65;;;;;;;;;;4993273;28;20212;-84
2022/12/18 00:31:43;;;;;;;63.05;23.70;;;;;;;;;;4993194;28;20703;-83
2022/12/18 00:34:47;;;;;;;71.22;26.77;;;;;;;;;;4991655;28;20212;-83
2022/12/18 00:37:53;;;;;;;65.63;25.50;;;;;;;;;;4981588;28;20189;-83
2022/12/18 00:40:57;;;;;;;62.92;26.05;;;;;;;;;;4992341;28;20227;-83
2022/12/18 00:44:02;;;;;;;68.70;27.00;;;;;;;;;;4980930;28;20204;-82
2022/12/18 00:47:06;;;;;;;64.95;25.55;;;;;;;;;;4992299;28;20196;-82
2022/12/18 00:50:11;;;;;;;74.05;26.90;;;;;;;;;;4982211;28;20236;-82
2022/12/18 00:53:15;;;;;;;71.10;26.35;;;;;;;;;;4996545;28;20181;-82
2022/12/18 00:56:20;;;;;;;67.20;26.20;;;;;;;;;;4986878;28;20189;-83
2022/12/18 00:59:24;;;;;;;67.60;26.80;;;;;;;;;;5000095;28;20177;-84
2022/12/18 01:02:28;;;;;;;62.83;25.70;;;;;;;;;;4998915;28;20979;-84
2022/12/18 01:05:33;;;;;;;62.80;26.15;;;;;;;;;;4985919;28;20614;-83
2022/12/18 01:08:37;;;;;;;67.78;24.77;;;;;;;;;;4997485;28;20216;-84
2022/12/18 01:11:42;;;;;;;59.03;22.97;;;;;;;;;;4988554;28;20706;-84
2022/12/18 01:14:48;;;;;;;61.10;22.93;;;;;;;;;;5000911;28;20615;-84
2022/12/18 01:17:52;;;;;;;55.73;22.03;;;;;;;;;;4989149;28;20912;-84
2022/12/18 01:20:57;;;;;;;53.20;22.10;;;;;;;;;;4999595;28;20619;-84
2022/12/18 01:24:01;;;;;;;52.73;21.60;;;;;;;;;;4988184;28;20547;-84
2022/12/18 01:27:05;;;;;;;53.70;21.10;;;;;;;;;;4987731;28;21097;-83
2022/12/18 01:30:10;;;;;;;63.93;21.63;;;;;;;;;;4998308;28;21165;-85
2022/12/18 01:33:14;;;;;;;56.38;22.02;;;;;;;;;;5008788;28;20624;-85
2022/12/18 01:36:21;;;;;;;57.83;23.00;;;;;;;;;;4996487;28;20193;-84
2022/12/18 01:39:25;;;;;;;48.77;20.03;;;;;;;;;;4996484;28;20536;-84
2022/12/18 01:42:29;;;;;;;55.67;20.30;;;;;;;;;;4996154;28;20634;-84
2022/12/18 01:45:33;;;;;;;56.13;20.17;;;;;;;;;;4996050;28;20204;-84
2022/12/18 01:48:39;;;;;;;42.83;17.80;;;;;;;;;;5019901;28;20662;-84
2022/12/18 01:51:43;;;;;;;47.87;19.80;;;;;;;;;;4985449;28;20658;-84
2022/12/18 01:54:51;;;;;;;45.00;17.93;;;;;;;;;;5008242;28;20620;-83
2022/12/18 01:57:59;;;;;;;47.83;18.43;;;;;;;;;;4985732;28;21102;-83
2022/12/18 02:01:03;;;;;;;45.13;17.13;;;;;;;;;;4985143;28;21095;-84
2022/12/18 02:04:29;;;;;;;42.47;17.30;;;;;;;;;;4986865;28;20185;-84
2022/12/18 02:07:52;;;;;;;41.00;16.90;;;;;;;;;;5008192;28;20620;-84
2022/12/18 02:11:20;;;;;;;37.90;16.27;;;;;;;;;;4996664;28;20620;-83
2022/12/18 02:14:48;;;;;;;44.38;16.88;;;;;;;;;;4980798;28;20623;-83
2022/12/18 02:18:01;;;;;;;33.15;15.30;;;;;;;;;;4997221;28;20180;-83
2022/12/18 02:21:38;;;;;;;39.50;15.60;;;;;;;;;;4995880;28;20224;-83
2022/12/18 02:24:58;;;;;;;43.00;15.98;;;;;;;;;;4990677;28;20619;-83
2022/12/18 02:28:06;;;;;;;41.30;17.10;;;;;;;;;;4985098;28;20197;-83
2022/12/18 02:31:16;;;;;;;42.15;16.02;;;;;;;;;;4983987;28;20220;-84
2022/12/18 02:34:25;;;;;;;48.15;16.77;;;;;;;;;;4983894;28;20189;-84
2022/12/18 02:37:30;;;;;;;47.92;18.15;;;;;;;;;;4994759;28;20189;-83
2022/12/18 02:40:39;;;;;;;44.30;17.27;;;;;;;;;;4984394;28;20225;-84
2022/12/18 02:43:52;;;;;;;46.28;16.33;;;;;;;;;;5005915;28;20205;-83
2022/12/18 02:46:56;;;;;;;48.28;17.40;;;;;;;;;;4983120;28;20651;-84
2022/12/18 02:50:24;;;;;;;46.90;16.60;;;;;;;;;;4994260;28;20220;-83
2022/12/18 02:53:43;;;;;;;43.97;18.23;;;;;;;;;;4984378;28;20197;-84
2022/12/18 02:56:53;;;;;;;41.88;16.77;;;;;;;;;;4995097;28;20545;-84
2022/12/18 03:00:07;;;;;;;39.70;15.63;;;;;;;;;;4983756;28;20184;-84
2022/12/18 03:03:18;;;;;;;47.50;17.85;;;;;;;;;;4994568;28;20197;-84
2022/12/18 03:06:31;;;;;;;42.60;17.25;;;;;;;;;;4984044;28;20213;-83
2022/12/18 03:09:42;;;;;;;42.97;16.63;;;;;;;;;;5005399;28;20220;-84
2022/12/18 03:12:55;;;;;;;40.97;17.33;;;;;;;;;;4994031;28;20192;-83
2022/12/18 03:16:01;;;;;;;43.13;17.30;;;;;;;;;;4974588;28;20205;-83
2022/12/18 03:19:16;;;;;;;44.50;17.60;;;;;;;;;;4985885;28;20656;-83
2022/12/18 03:22:22;;;;;;;41.90;16.77;;;;;;;;;;4985473;28;20628;-83
2022/12/18 03:25:31;;;;;;;37.40;16.83;;;;;;;;;;4985470;28;20561;-84
2022/12/18 03:28:42;;;;;;;45.43;16.20;;;;;;;;;;4985355;28;20553;-84
2022/12/18 03:31:53;;;;;;;39.97;16.00;;;;;;;;;;4985110;28;21218;-83
2022/12/18 03:35:02;;;;;;;39.57;16.67;;;;;;;;;;4985240;28;20557;-85
2022/12/18 03:38:10;;;;;;;40.13;17.63;;;;;;;;;;4985004;28;20541;-84
2022/12/18 03:41:32;;;;;;;38.10;16.67;;;;;;;;;;4985076;28;20629;-83
2022/12/18 03:45:21;;;;;;;41.43;16.77;;;;;;;;;;4984622;28;21127;-83
2022/12/18 03:48:29;;;;;;;41.80;16.20;;;;;;;;;;4990397;28;20561;-84
2022/12/18 03:51:50;;;;;;;38.77;16.63;;;;;;;;;;4985126;28;20633;-83
2022/12/18 03:54:57;;;;;;;38.97;15.87;;;;;;;;;;4995981;28;20544;-83
2022/12/18 03:58:04;;;;;;;48.47;17.10;;;;;;;;;;4985743;28;21178;-84
2022/12/18 04:01:23;;;;;;;40.13;17.20;;;;;;;;;;4988063;28;21191;-84
2022/12/18 04:04:28;;;;;;;45.10;17.47;;;;;;;;;;4997330;28;20557;-83
2022/12/18 04:07:33;;;;;;;43.20;16.80;;;;;;;;;;4997966;28;20553;-83
2022/12/18 04:10:39;;;;;;;43.03;17.27;;;;;;;;;;4999825;28;20711;-85
2022/12/18 04:13:43;;;;;;;47.57;17.57;;;;;;;;;;4982894;28;20924;-84
2022/12/18 04:16:55;;;;;;;40.90;16.50;;;;;;;;;;4993482;28;21134;-82
2022/12/18 04:20:05;;;;;;;38.17;16.70;;;;;;;;;;5004048;28;20614;-83
2022/12/18 04:23:10;;;;;;;44.90;18.17;;;;;;;;;;5028214;28;20544;-83
2022/12/18 04:26:16;;;;;;;47.27;19.13;;;;;;;;;;4993449;28;20552;-83
2022/12/18 04:29:29;;;;;;;41.90;17.27;;;;;;;;;;5015908;28;20647;-84
2022/12/18 04:32:34;;;;;;;46.27;18.07;;;;;;;;;;4982584;28;21079;-83
2022/12/18 04:35:40;;;;;;;45.03;19.53;;;;;;;;;;4982374;28;20544;-82
2022/12/18 04:38:45;;;;;;;47.60;17.43;;;;;;;;;;4993078;28;20927;-83
2022/12/18 04:41:53;;;;;;;42.23;16.97;;;;;;;;;;5005715;28;20634;-83
2022/12/18 04:44:57;;;;;;;41.53;16.10;;;;;;;;;;4993418;28;20556;-83
2022/12/18 04:48:02;;;;;;;40.73;17.73;;;;;;;;;;4982241;28;20540;-83
2022/12/18 04:51:07;;;;;;;45.93;18.10;;;;;;;;;;4992959;28;20662;-84
2022/12/18 04:54:11;;;;;;;44.83;18.23;;;;;;;;;;4994950;28;20548;-84
2022/12/18 04:57:15;;;;;;;43.13;18.50;;;;;;;;;;4992596;28;20552;-80
2022/12/18 05:00:20;;;;;;;39.23;17.27;;;;;;;;;;4981236;28;20571;-81
2022/12/18 05:03:24;;;;;;;41.53;17.90;;;;;;;;;;5003738;28;20548;-80
2022/12/18 05:06:28;;;;;;;43.93;17.80;;;;;;;;;;5005755;28;20611;-82
2022/12/18 05:09:32;;;;;;;44.93;17.20;;;;;;;;;;5016653;28;20603;-80
2022/12/18 05:12:57;;;;;;;42.43;17.30;;;;;;;;;;4993952;28;20627;-79
2022/12/18 05:16:02;;;;;;;43.07;18.57;;;;;;;;;;4993727;28;20544;-82
2022/12/18 05:19:06;;;;;;;46.90;19.47;;;;;;;;;;4995293;28;20556;-81
2022/12/18 05:22:11;;;;;;;45.03;17.90;;;;;;;;;;4984342;28;20627;-81
2022/12/18 05:25:15;;;;;;;41.80;17.00;;;;;;;;;;5029522;28;20544;-82
2022/12/18 05:28:21;;;;;;;36.67;14.80;;;;;;;;;;4995969;28;20544;-81
2022/12/18 05:31:25;;;;;;;37.57;15.87;;;;;;;;;;5006268;28;20670;-81
2022/12/18 05:34:29;;;;;;;41.23;15.60;;;;;;;;;;4995497;28;20606;-81
2022/12/18 05:37:34;;;;;;;39.13;16.17;;;;;;;;;;4984499;28;20544;-81
2022/12/18 05:40:42;;;;;;;35.43;16.20;;;;;;;;;;5006147;28;20635;-81
2022/12/18 05:43:46;;;;;;;41.07;16.67;;;;;;;;;;4994877;28;20548;-80
2022/12/18 05:46:50;;;;;;;42.23;16.83;;;;;;;;;;5017118;28;20552;-81
2022/12/18 05:49:54;;;;;;;38.00;16.43;;;;;;;;;;5017221;28;20623;-80
2022/12/18 05:52:59;;;;;;;47.60;17.50;;;;;;;;;;4983639;28;20588;-81
2022/12/18 05:56:06;;;;;;;42.47;17.87;;;;;;;;;;5008140;28;20971;-80
2022/12/18 05:59:10;;;;;;;39.97;17.30;;;;;;;;;;5031290;28;20614;-80
2022/12/18 06:02:14;;;;;;;41.20;15.90;;;;;;;;;;4996815;28;20626;-80
2022/12/18 06:05:18;;;;;;;38.60;17.07;;;;;;;;;;5008227;28;20618;-80
2022/12/18 06:08:22;;;;;;;39.87;16.23;;;;;;;;;;5008301;28;20555;-81
2022/12/18 06:11:27;;;;;;;37.63;16.30;;;;;;;;;;5007735;28;21007;-80
2022/12/18 06:14:31;;;;;;;37.70;16.40;;;;;;;;;;5007332;28;20548;-81
2022/12/18 06:17:35;;;;;;;40.43;16.30;;;;;;;;;;5006781;28;20552;-81
2022/12/18 06:20:41;;;;;;;49.27;18.57;;;;;;;;;;4995714;28;20631;-81
2022/12/18 06:23:45;;;;;;;45.00;17.87;;;;;;;;;;5006824;28;20611;-81
2022/12/18 06:26:49;;;;;;;41.73;16.20;;;;;;;;;;5006577;28;20685;-79
2022/12/18 06:29:53;;;;;;;42.23;17.97;;;;;;;;;;4995103;28;20974;-81
2022/12/18 06:32:57;;;;;;;37.40;15.50;;;;;;;;;;4984254;28;20578;-82
2022/12/18 06:36:10;;;;;;;36.83;15.90;;;;;;;;;;4995441;28;20548;-82
2022/12/18 06:39:14;;;;;;;37.07;15.10;;;;;;;;;;4983692;28;20548;-81
2022/12/18 06:42:18;;;;;;;35.03;14.83;;;;;;;;;;4983365;28;21211;-80
2022/12/18 06:45:22;;;;;;;39.60;16.77;;;;;;;;;;5005766;28;20551;-80
2022/12/18 06:48:27;;;;;;;36.60;16.90;;;;;;;;;;4994893;28;20544;-81
2022/12/18 06:51:31;;;;;;;33.50;15.80;;;;;;;;;;4994327;28;20695;-83
2022/12/18 06:54:35;;;;;;;40.17;16.30;;;;;;;;;;4994706;28;20548;-81
2022/12/18 06:57:39;;;;;;;34.40;15.27;;;;;;;;;;4994533;28;20615;-80
2022/12/18 07:00:43;;;;;;;42.40;17.80;;;;;;;;;;4994029;28;20642;-82
2022/12/18 07:03:53;;;;;;;49.77;20.17;;;;;;;;;;4994744;28;20551;-80
2022/12/18 07:06:57;;;;;;;46.90;22.20;;;;;;;;;;4982322;28;20670;-80
2022/12/18 07:10:02;;;;;;;42.73;16.67;;;;;;;;;;4994413;28;20548;-79
2022/12/18 07:13:07;;;;;;;48.10;18.60;;;;;;;;;;4994643;28;20607;-81
2022/12/18 07:16:17;;;;;;;37.17;16.80;;;;;;;;;;4997176;28;21157;-83
2022/12/18 07:19:21;;;;;;;35.43;16.07;;;;;;;;;;4998444;28;20620;-83
2022/12/18 07:22:25;;;;;;;31.13;14.80;;;;;;;;;;4997638;28;21209;-83
2022/12/18 07:25:30;;;;;;;35.70;15.37;;;;;;;;;;5001257;28;20592;-83
2022/12/18 07:28:35;;;;;;;34.37;16.57;;;;;;;;;;5014109;28;20576;-83
2022/12/18 07:31:39;;;;;;;37.00;16.90;;;;;;;;;;5000991;28;20667;-82
2022/12/18 07:34:43;;;;;;;33.93;15.93;;;;;;;;;;4994678;28;20619;-84
2022/12/18 07:37:47;;;;;;;41.37;17.80;;;;;;;;;;4997402;28;20900;-85
2022/12/18 07:40:51;;;;;;;39.13;18.70;;;;;;;;;;4997583;28;21209;-84
2022/12/18 07:43:55;;;;;;;43.23;17.73;;;;;;;;;;5009091;28;20563;-86
2022/12/18 07:47:00;;;;;;;39.20;18.10;;;;;;;;;;4996755;28;20548;-85
2022/12/18 07:50:04;;;;;;;35.63;16.23;;;;;;;;;;4995496;28;20888;-86
2022/12/18 07:53:08;;;;;;;35.67;15.17;;;;;;;;;;4995117;28;20548;-87
2022/12/18 07:56:13;;;;;;;36.13;14.80;;;;;;;;;;4984982;28;20576;-85
2022/12/18 07:59:17;;;;;;;31.10;14.53;;;;;;;;;;4990197;28;20575;-84
2022/12/18 08:02:22;;;;;;;32.50;15.40;;;;;;;;;;5004964;28;20639;-83
2022/12/18 08:05:27;;;;;;;34.27;16.70;;;;;;;;;;4991306;28;20611;-84
2022/12/18 08:08:31;;;;;;;29.97;14.30;;;;;;;;;;4985627;28;20908;-79
2022/12/18 08:11:36;;;;;;;29.13;13.63;;;;;;;;;;4988596;28;20675;-82
2022/12/18 08:14:40;;;;;;;32.60;14.10;;;;;;;;;;5007119;28;21208;-81
2022/12/18 08:17:45;;;;;;;30.87;14.80;;;;;;;;;;5001201;28;20576;-81
2022/12/18 08:20:49;;;;;;;34.37;14.53;;;;;;;;;;4985566;28;20663;-82
2022/12/18 08:23:55;;;;;;;31.10;15.67;;;;;;;;;;4993006;28;20584;-80
2022/12/18 08:26:59;;;;;;;34.53;14.60;;;;;;;;;;4985010;28;20619;-82
2022/12/18 08:30:05;;;;;;;37.43;15.13;;;;;;;;;;4984567;28;20711;-80
2022/12/18 08:33:09;;;;;;;31.80;15.40;;;;;;;;;;4985951;28;20591;-80
2022/12/18 08:36:14;;;;;;;29.53;13.50;;;;;;;;;;4995277;28;21161;-79
2022/12/18 08:39:18;;;;;;;30.37;15.17;;;;;;;;;;4983798;28;20579;-81
2022/12/18 08:45:50;;;;;;;35.43;14.57;;;;;;;;;;5017474;28;20600;-81
2022/12/18 08:48:55;;;;;;;33.20;14.63;;;;;;;;;;5007506;28;20583;-79
2022/12/18 08:52:00;;;;;;;28.67;13.63;;;;;;;;;;5006794;28;20663;-82
2022/12/18 08:55:05;;;;;;;29.53;14.13;;;;;;;;;;5004445;28;20618;-82
2022/12/18 08:58:10;;;;;;;35.23;13.97;;;;;;;;;;5001958;28;20555;-82
2022/12/18 09:01:15;;;;;;;28.73;12.43;;;;;;;;;;4991320;28;20639;-80
2022/12/18 09:04:19;;;;;;;31.53;14.40;;;;;;;;;;5005392;28;21193;-81
2022/12/18 09:07:23;;;;;;;29.47;14.03;;;;;;;;;;5005522;28;20592;-80
2022/12/18 09:10:27;;;;;;;28.80;13.50;;;;;;;;;;5003007;28;20615;-80
2022/12/18 09:13:32;;;;;;;31.00;14.27;;;;;;;;;;5001968;28;20611;-80
2022/12/18 09:16:36;;;;;;;29.43;14.40;;;;;;;;;;4980347;28;20557;-82
2022/12/18 09:19:41;;;;;;;27.67;13.43;;;;;;;;;;4992475;28;21091;-80
2022/12/18 09:22:45;;;;;;;28.30;13.03;;;;;;;;;;4978831;28;20564;-81
2022/12/18 09:25:48;;;;;;;35.93;15.77;;;;;;;;;;4974031;28;20592;-82
2022/12/18 09:28:53;;;;;;;30.40;13.93;;;;;;;;;;4974466;28;20540;-81
2022/12/18 09:31:58;;;;;;;29.73;15.10;;;;;;;;;;4988918;28;20659;-80
2022/12/18 09:35:03;;;;;;;33.10;14.87;;;;;;;;;;4988235;28;20560;-81
2022/12/18 09:38:11;;;;;;;32.53;14.17;;;;;;;;;;4977343;28;20557;-79
2022/12/18 09:41:30;;;;;;;29.30;14.33;;;;;;;;;;4987761;28;20721;-81
2022/12/18 09:44:41;;;;;;;30.10;13.80;;;;;;;;;;4988232;28;20545;-80
2022/12/18 09:47:48;;;;;;;27.50;12.73;;;;;;;;;;4987822;28;20569;-80
2022/12/18 09:50:58;;;;;;;26.90;12.40;;;;;;;;;;4976655;28;20640;-80
2022/12/18 09:54:14;;;;;;;30.13;13.97;;;;;;;;;;4976244;28;20557;-79
2022/12/18 09:57:22;;;;;;;30.00;14.63;;;;;;;;;;4987115;28;20545;-80
2022/12/18 10:00:26;;;;;;;32.93;14.90;;;;;;;;;;4975699;28;20552;-80
2022/12/18 10:03:31;;;;;;;26.73;13.57;;;;;;;;;;4975807;28;20560;-81
2022/12/18 10:06:42;;;;;;;27.03;13.73;;;;;;;;;;4986833;28;20612;-81
2022/12/18 10:10:00;;;;;;;30.77;15.17;;;;;;;;;;4976389;28;20549;-80
2022/12/18 10:13:17;;;;;;;28.03;14.50;;;;;;;;;;4986694;28;20605;-81
2022/12/18 10:16:26;;;;;;;32.33;15.00;;;;;;;;;;4986599;28;20545;-79
2022/12/18 10:19:39;;;;;;;27.50;13.63;;;;;;;;;;4987022;28;20546;-81
2022/12/18 10:23:00;;;;;;;28.57;13.37;;;;;;;;;;4975354;28;20561;-79
2022/12/18 10:26:10;;;;;;;30.60;14.00;;;;;;;;;;4975461;28;20553;-80
2022/12/18 10:29:16;;;;;;;30.17;14.50;;;;;;;;;;4986525;28;20553;-80
2022/12/18 10:32:27;;;;;;;31.13;15.50;;;;;;;;;;4986083;28;20667;-81
2022/12/18 10:35:31;;;;;;;33.00;15.47;;;;;;;;;;4986525;28;20553;-80
2022/12/18 10:38:38;;;;;;;31.17;14.73;;;;;;;;;;4986083;28;20568;-81
2022/12/18 10:41:42;;;;;;;34.97;15.43;;;;;;;;;;4974764;28;20632;-80
2022/12/18 10:45:02;;;;;;;28.60;14.50;;;;;;;;;;5010314;28;20615;-81
2022/12/18 10:48:21;;;;;;;32.03;15.20;;;;;;;;;;4992281;28;20623;-80
2022/12/18 10:51:35;;;;;;;29.20;13.97;;;;;;;;;;5002989;28;21252;-80
2022/12/18 10:54:49;;;;;;;30.47;14.87;;;;;;;;;;4974478;28;20561;-80
2022/12/18 10:57:54;;;;;;;29.50;14.97;;;;;;;;;;4974491;28;20549;-82
2022/12/18 11:01:12;;;;;;;27.33;14.53;;;;;;;;;;4985307;28;20628;-80
2022/12/18 11:04:27;;;;;;;31.90;15.17;;;;;;;;;;4985402;28;20559;-81
2022/12/18 11:07:49;;;;;;;33.67;16.17;;;;;;;;;;4984574;28;21107;-81
2022/12/18 11:10:53;;;;;;;26.57;13.30;;;;;;;;;;4973564;28;20624;-81
2022/12/18 11:14:05;;;;;;;29.30;15.10;;;;;;;;;;4973586;28;20542;-81
2022/12/18 11:17:24;;;;;;;26.50;12.43;;;;;;;;;;4973912;28;20612;-81
2022/12/18 11:20:35;;;;;;;29.93;13.37;;;;;;;;;;4996364;28;20622;-82
2022/12/18 11:23:49;;;;;;;26.17;13.40;;;;;;;;;;4973362;28;20612;-83
2022/12/18 11:26:54;;;;;;;28.10;14.63;;;;;;;;;;4973754;28;20608;-81
2022/12/18 11:30:32;;;;;;;28.83;14.00;;;;;;;;;;4974114;28;20553;-83
2022/12/18 11:33:39;;;;;;;24.87;13.07;;;;;;;;;;4985347;28;20553;-81
2022/12/18 11:36:47;;;;;;;26.57;13.87;;;;;;;;;;4964036;28;20569;-82
2022/12/18 11:40:00;;;;;;;24.33;12.73;;;;;;;;;;4974220;28;20565;-81
2022/12/18 11:43:24;;;;;;;24.23;12.73;;;;;;;;;;4997276;28;20545;-81
2022/12/18 11:46:36;;;;;;;23.93;13.10;;;;;;;;;;4984279;28;20561;-80
2022/12/18 11:49:41;;;;;;;25.83;12.20;;;;;;;;;;4984480;28;20612;-81
2022/12/18 11:52:46;;;;;;;25.97;14.17;;;;;;;;;;4972997;28;20613;-81
2022/12/18 11:56:20;;;;;;;25.63;13.73;;;;;;;;;;4996055;28;21005;-80
2022/12/18 11:59:37;;;;;;;28.30;14.10;;;;;;;;;;4973436;28;20541;-80
2022/12/18 12:02:56;;;;;;;23.77;12.63;;;;;;;;;;5007062;28;20647;-80
2022/12/18 12:06:16;;;;;;;25.33;14.17;;;;;;;;;;4992929;28;20708;-80
2022/12/18 12:09:37;;;;;;;26.20;14.47;;;;;;;;;;4992735;28;20568;-82
2022/12/18 12:12:49;;;;;;;29.27;14.87;;;;;;;;;;4981965;28;20668;-82
2022/12/18 12:16:06;;;;;;;26.67;13.90;;;;;;;;;;4981780;28;20560;-81
2022/12/18 12:19:40;;;;;;;23.77;13.77;;;;;;;;;;4993142;28;21107;-80
2022/12/18 12:23:01;;;;;;;24.87;13.13;;;;;;;;;;4993322;28;20548;-81
2022/12/18 12:26:54;;;;;;;27.90;14.50;;;;;;;;;;4993106;28;20552;-81
2022/12/18 12:30:32;;;;;;;26.13;13.77;;;;;;;;;;4987518;28;20600;-82
2022/12/18 12:33:42;;;;;;;24.57;13.87;;;;;;;;;;5003577;28;20616;-82
2022/12/18 12:36:52;;;;;;;27.03;12.93;;;;;;;;;;5022520;28;20567;-81
2022/12/18 12:39:59;;;;;;;28.47;14.03;;;;;;;;;;5009455;28;20611;-81
2022/12/18 12:43:21;;;;;;;25.20;14.03;;;;;;;;;;5009384;28;20541;-80
2022/12/18 12:46:26;;;;;;;28.23;13.37;;;;;;;;;;5008280;28;20560;-79
2022/12/18 12:49:33;;;;;;;23.53;12.87;;;;;;;;;;5009596;28;20540;-80
2022/12/18 12:52:48;;;;;;;26.73;14.27;;;;;;;;;;5010633;28;20671;-80
2022/12/18 12:55:54;;;;;;;26.17;13.37;;;;;;;;;;5010354;28;20564;-82
2022/12/18 12:59:17;;;;;;;26.90;12.43;;;;;;;;;;5011623;28;20563;-80
2022/12/18 13:02:33;;;;;;;25.37;13.03;;;;;;;;;;5021667;28;20635;-80
2022/12/18 13:06:07;;;;;;;27.80;14.23;;;;;;;;;;5015148;28;20635;-80
2022/12/18 13:09:12;;;;;;;29.33;14.30;;;;;;;;;;5021185;28;20584;-80
2022/12/18 13:15:44;;;;;;;28.70;14.37;;;;;;;;;;5016238;28;20924;-81
2022/12/18 13:18:56;;;;;;;30.63;15.47;;;;;;;;;;5017576;28;20543;-79
2022/12/18 13:22:01;;;;;;;32.10;14.83;;;;;;;;;;5003275;28;20635;-81
2022/12/18 13:25:30;;;;;;;27.77;14.37;;;;;;;;;;5013922;28;20607;-81
2022/12/18 13:28:47;;;;;;;30.07;14.40;;;;;;;;;;5012128;28;20543;-81
2022/12/18 13:31:58;;;;;;;31.63;15.80;;;;;;;;;;5024594;28;20631;-82
2022/12/18 13:35:21;;;;;;;27.60;14.27;;;;;;;;;;5012990;28;20543;-82
2022/12/18 13:38:25;;;;;;;30.07;14.67;;;;;;;;;;5014233;28;20548;-80
2022/12/18 13:41:30;;;;;;;28.90;13.57;;;;;;;;;;5011845;28;20631;-81
2022/12/18 13:44:43;;;;;;;29.67;14.90;;;;;;;;;;5003069;28;20552;-80
2022/12/18 13:47:47;;;;;;;29.33;14.90;;;;;;;;;;4994363;28;20575;-80
2022/12/18 13:50:57;;;;;;;31.97;15.67;;;;;;;;;;4992802;28;20635;-81
2022/12/18 13:54:17;;;;;;;27.47;14.33;;;;;;;;;;5009013;28;20631;-80
2022/12/18 13:57:35;;;;;;;30.50;14.50;;;;;;;;;;5016405;28;20576;-82
2022/12/18 14:00:44;;;;;;;31.77;13.90;;;;;;;;;;5021128;28;20630;-80
2022/12/18 14:03:48;;;;;;;45.20;20.07;;;;;;;;;;5007539;28;20583;-81
2022/12/18 14:07:01;;;;;;;40.40;19.17;;;;;;;;;;5004197;28;20571;-81
2022/12/18 14:10:15;;;;;;;31.57;15.70;;;;;;;;;;4985217;28;20616;-80
2022/12/18 14:13:26;;;;;;;29.47;14.07;;;;;;;;;;4983652;28;21031;-81
2022/12/18 14:16:31;;;;;;;30.70;14.50;;;;;;;;;;5007282;28;20607;-82
2022/12/18 14:19:35;;;;;;;29.70;14.77;;;;;;;;;;4996927;28;20553;-82
2022/12/18 14:22:44;;;;;;;25.57;13.40;;;;;;;;;;4985163;28;20640;-83
2022/12/18 14:25:49;;;;;;;25.53;13.00;;;;;;;;;;4977015;28;20608;-82
2022/12/18 14:28:54;;;;;;;27.20;13.33;;;;;;;;;;4995540;28;20630;-82
2022/12/18 14:32:17;;;;;;;25.77;13.10;;;;;;;;;;4996502;28;20655;-81
2022/12/18 14:35:21;;;;;;;28.73;13.30;;;;;;;;;;4995760;28;20545;-81
2022/12/18 14:38:35;;;;;;;28.57;13.37;;;;;;;;;;5007153;28;21186;-82
2022/12/18 14:41:39;;;;;;;26.60;12.97;;;;;;;;;;4995540;28;20650;-83
2022/12/18 14:44:44;;;;;;;28.17;13.97;;;;;;;;;;4995738;28;20536;-80
2022/12/18 14:47:48;;;;;;;28.70;13.90;;;;;;;;;;4996196;28;20548;-82
2022/12/18 14:51:17;;;;;;;28.80;14.40;;;;;;;;;;5006688;28;20639;-81
2022/12/18 14:54:23;;;;;;;24.63;12.67;;;;;;;;;;4995610;28;20604;-81
2022/12/18 14:57:37;;;;;;;33.00;15.00;;;;;;;;;;5029894;28;21090;-81
2022/12/18 15:00:42;;;;;;;31.60;15.60;;;;;;;;;;5016620;28;20635;-81
2022/12/18 15:03:46;;;;;;;32.23;16.27;;;;;;;;;;5014111;28;20557;-80
2022/12/18 15:07:08;;;;;;;42.17;19.40;;;;;;;;;;5013560;28;20560;-80
2022/12/18 15:10:24;;;;;;;38.90;18.73;;;;;;;;;;5024037;28;20620;-81
2022/12/18 15:13:28;;;;;;;32.80;16.30;;;;;;;;;;5012374;28;21170;-81
2022/12/18 15:16:33;;;;;;;27.77;14.20;;;;;;;;;;5016213;28;20632;-81
2022/12/18 15:19:41;;;;;;;28.33;14.40;;;;;;;;;;5014738;28;20556;-82
2022/12/18 15:22:47;;;;;;;25.73;14.37;;;;;;;;;;5025922;28;20575;-80
2022/12/18 15:26:05;;;;;;;25.93;13.53;;;;;;;;;;5001074;28;20587;-82
2022/12/18 15:29:21;;;;;;;26.50;15.33;;;;;;;;;;4991494;28;20607;-81
2022/12/18 15:32:26;;;;;;;27.00;14.90;;;;;;;;;;5004171;28;20638;-81
2022/12/18 15:35:30;;;;;;;30.00;14.73;;;;;;;;;;5010304;28;20588;-81
2022/12/18 15:38:35;;;;;;;30.20;14.77;;;;;;;;;;5006551;28;20552;-80
2022/12/18 15:41:39;;;;;;;29.10;14.97;;;;;;;;;;4993893;28;20994;-82
2022/12/18 15:44:44;;;;;;;29.63;15.10;;;;;;;;;;4994347;28;21117;-81
2022/12/18 15:47:48;;;;;;;31.40;15.40;;;;;;;;;;4982991;28;20560;-81
2022/12/18 15:50:56;;;;;;;33.27;15.33;;;;;;;;;;4993564;28;21248;-80
2022/12/18 15:54:05;;;;;;;30.17;15.47;;;;;;;;;;4982435;28;20604;-81
2022/12/18 15:57:23;;;;;;;27.60;14.60;;;;;;;;;;4994147;28;20552;-81
2022/12/18 16:00:28;;;;;;;33.60;15.63;;;;;;;;;;4994098;28;21103;-82
2022/12/18 16:03:32;;;;;;;36.50;17.10;;;;;;;;;;4983400;28;20625;-81
2022/12/18 16:06:37;;;;;;;29.43;14.53;;;;;;;;;;4994217;28;20608;-82
2022/12/18 16:09:41;;;;;;;32.60;16.37;;;;;;;;;;4994566;28;20632;-82
2022/12/18 16:12:46;;;;;;;33.17;15.13;;;;;;;;;;4983657;28;20548;-83
2022/12/18 16:15:50;;;;;;;34.83;16.13;;;;;;;;;;4994774;28;20919;-80
2022/12/18 16:18:54;;;;;;;34.00;16.50;;;;;;;;;;4994119;28;20603;-82
2022/12/18 16:21:58;;;;;;;34.80;15.77;;;;;;;;;;4982777;28;20639;-81
2022/12/18 16:25:04;;;;;;;31.77;14.63;;;;;;;;;;4995850;28;20568;-81
2022/12/18 16:28:09;;;;;;;30.03;15.33;;;;;;;;;;4999145;28;20544;-82
2022/12/18 16:31:13;;;;;;;33.47;16.33;;;;;;;;;;5021317;28;21099;-83
2022/12/18 16:34:23;;;;;;;31.73;15.67;;;;;;;;;;5009498;28;20604;-81
2022/12/18 16:37:27;;;;;;;36.17;15.47;;;;;;;;;;4999514;28;20544;-80
2022/12/18 16:40:32;;;;;;;33.73;16.50;;;;;;;;;;4999592;28;20624;-80
2022/12/18 16:43:37;;;;;;;29.63;14.83;;;;;;;;;;4998806;28;20548;-81
2022/12/18 16:46:47;;;;;;;33.70;15.33;;;;;;;;;;4987702;28;21137;-81
2022/12/18 16:49:52;;;;;;;34.63;15.50;;;;;;;;;;4985280;28;20607;-81
2022/12/18 16:52:56;;;;;;;29.40;14.63;;;;;;;;;;4996251;28;21106;-81
2022/12/18 16:56:01;;;;;;;29.53;14.40;;;;;;;;;;4995923;28;20564;-82
2022/12/18 16:59:05;;;;;;;33.20;14.93;;;;;;;;;;4995152;28;20544;-82
2022/12/18 17:02:22;;;;;;;30.97;15.00;;;;;;;;;;5005763;28;20638;-79
2022/12/18 17:05:26;;;;;;;28.40;14.67;;;;;;;;;;4995374;28;20615;-81
2022/12/18 17:08:31;;;;;;;35.73;15.57;;;;;;;;;;4994692;28;20610;-82
2022/12/18 17:11:35;;;;;;;29.57;15.43;;;;;;;;;;4983201;28;20639;-81
2022/12/18 17:14:40;;;;;;;34.63;15.97;;;;;;;;;;4993800;28;20627;-79
2022/12/18 17:17:44;;;;;;;31.40;16.60;;;;;;;;;;5008560;28;20555;-79
2022/12/18 17:20:48;;;;;;;37.53;16.10;;;;;;;;;;4996934;28;20639;-78
2022/12/18 17:23:53;;;;;;;29.80;13.97;;;;;;;;;;4994953;28;20540;-78
2022/12/18 17:26:57;;;;;;;30.23;14.60;;;;;;;;;;5005177;28;20912;-78
2022/12/18 17:30:02;;;;;;;30.00;15.60;;;;;;;;;;4993879;28;20551;-78
2022/12/18 17:33:07;;;;;;;31.07;15.53;;;;;;;;;;4994232;28;20552;-77
2022/12/18 17:36:12;;;;;;;31.70;15.53;;;;;;;;;;4997104;28;20556;-79
2022/12/18 17:39:18;;;;;;;31.47;16.00;;;;;;;;;;5023391;28;20569;-79
2022/12/18 17:42:23;;;;;;;30.83;15.37;;;;;;;;;;5013249;28;20642;-79
2022/12/18 17:45:27;;;;;;;29.53;15.57;;;;;;;;;;4996566;28;20952;-80
2022/12/18 17:48:32;;;;;;;32.90;16.23;;;;;;;;;;4993383;28;21103;-78
2022/12/18 17:51:36;;;;;;;33.50;16.77;;;;;;;;;;5007575;28;20643;-78
2022/12/18 17:54:42;;;;;;;36.10;17.67;;;;;;;;;;5007397;28;20596;-78
2022/12/18 17:57:46;;;;;;;36.13;17.23;;;;;;;;;;4997187;28;20552;-78
2022/12/18 18:00:51;;;;;;;35.73;17.27;;;;;;;;;;4998991;28;20631;-79
2022/12/18 18:03:55;;;;;;;35.93;16.93;;;;;;;;;;4986953;28;20548;-78
2022/12/18 18:06:59;;;;;;;36.27;17.50;;;;;;;;;;5019224;28;20556;-78
2022/12/18 18:10:05;;;;;;;38.40;18.47;;;;;;;;;;4996305;28;20551;-78
2022/12/18 18:16:47;;;;;;;36.10;17.00;;;;;;;;;;4993799;28;20548;-77
2022/12/18 18:19:51;;;;;;;35.97;18.53;;;;;;;;;;4997725;28;20548;-79
2022/12/18 18:22:56;;;;;;;38.07;17.77;;;;;;;;;;5020271;28;20551;-80
2022/12/18 18:26:04;;;;;;;33.87;17.27;;;;;;;;;;4984515;28;20912;-80